createdAt,value
2022-10-22T00:06:44.995Z,100.00
2022-10-22T00:16:49.116Z,100.00
2022-10-22T00:26:52.152Z,100.00
2022-10-22T00:36:56.636Z,100.00
2022-10-22T00:46:59.368Z,100.00
2022-10-22T00:57:03.513Z,100.00
2022-10-22T01:07:06.328Z,100.00
2022-10-22T01:17:13.888Z,100.00
2022-10-22T01:27:21.973Z,100.00
2022-10-22T01:37:27.130Z,100.00
2022-10-22T01:47:38.087Z,100.00
2022-10-22T01:57:44.994Z,100.00
2022-10-22T02:07:50.467Z,100.00
2022-10-22T02:17:56.389Z,100.00
2022-10-22T02:28:03.809Z,100.00
2022-10-22T02:38:08.928Z,100.00
2022-10-22T02:48:11.724Z,100.00
2022-10-22T02:58:15.834Z,100.00
2022-10-22T03:08:18.554Z,100.00
2022-10-22T03:18:22.603Z,100.00
2022-10-22T03:28:26.958Z,100.00
2022-10-22T03:38:31.930Z,100.00
2022-10-22T03:48:34.774Z,100.00
2022-10-22T03:58:39.055Z,100.00
2022-10-22T04:08:42.795Z,100.00
2022-10-22T04:18:47.470Z,100.00
2022-10-22T04:28:51.328Z,100.00
2022-10-22T04:38:56.262Z,100.00
2022-10-22T04:48:59.257Z,100.00
2022-10-22T04:59:04.400Z,100.00
2022-10-22T05:09:08.291Z,100.00
2022-10-22T05:19:17.055Z,100.00
2022-10-22T05:29:20.284Z,100.00
2022-10-22T05:39:24.332Z,100.00
2022-10-22T05:49:27.266Z,100.00
2022-10-22T05:59:31.449Z,100.00
2022-10-22T06:19:44.798Z,100.00
2022-10-22T06:29:47.510Z,100.00
2022-10-22T06:39:51.812Z,100.00
2022-10-22T06:49:54.609Z,100.00
2022-10-22T06:59:58.850Z,100.00
2022-10-22T07:10:01.726Z,100.00
2022-10-22T07:20:06.531Z,100.00
2022-10-22T07:30:11.090Z,100.00
2022-10-22T07:40:15.481Z,100.00
2022-10-22T07:50:18.807Z,100.00
2022-10-22T08:00:25.247Z,100.00
2022-10-22T08:10:28.449Z,100.00
2022-10-22T08:20:33.038Z,100.00
2022-10-22T08:30:38.046Z,100.00
2022-10-22T08:40:42.437Z,100.00
2022-10-22T08:50:47.382Z,100.00
2022-10-22T09:00:56.829Z,100.00
2022-10-22T09:11:02.998Z,100.00
2022-10-22T09:21:16.342Z,100.00
2022-10-22T09:31:19.191Z,100.00
2022-10-22T09:41:25.477Z,100.00
2022-10-22T09:51:37.332Z,100.00
2022-10-22T10:01:42.087Z,100.00
2022-10-22T10:11:47.283Z,100.00
2022-10-22T10:21:57.280Z,100.00
2022-10-22T10:32:05.867Z,100.00
2022-10-22T10:42:16.764Z,100.00
2022-10-22T10:52:23.226Z,99.33
2022-10-22T11:02:41.544Z,97.65
2022-10-22T11:12:48.922Z,96.72
2022-10-22T11:23:18.038Z,92.49
2022-10-22T11:33:20.955Z,92.23
2022-10-22T11:43:29.453Z,88.47
2022-10-22T11:53:33.402Z,87.36
2022-10-22T12:03:42.512Z,87.09
2022-10-22T12:14:00.262Z,84.60
2022-10-22T12:24:05.033Z,85.56
2022-10-22T12:34:07.955Z,85.16
2022-10-22T12:44:14.027Z,85.17
2022-10-22T12:54:22.567Z,83.46
2022-10-22T13:04:36.651Z,83.74
2022-10-22T13:14:39.733Z,82.76
2022-10-22T13:24:49.978Z,81.53
2022-10-22T13:34:52.877Z,81.53
2022-10-22T13:44:57.101Z,82.78
2022-10-22T13:55:00.123Z,83.22
2022-10-22T14:05:06.567Z,82.30
2022-10-22T14:15:10.325Z,82.45
2022-10-22T14:25:15.501Z,83.54
2022-10-22T14:35:19.467Z,83.69
2022-10-22T14:45:25.225Z,83.28
2022-10-22T14:55:29.239Z,83.51
2022-10-22T15:05:33.498Z,84.65
2022-10-22T15:15:39.457Z,84.02
2022-10-22T15:25:46.065Z,86.70
2022-10-22T15:35:48.830Z,89.24
2022-10-22T15:46:04.006Z,90.73
2022-10-22T15:56:07.166Z,93.00
2022-10-22T16:06:11.389Z,94.25
2022-10-22T16:16:14.308Z,95.27
2022-10-22T16:26:18.926Z,96.70
2022-10-22T16:36:22.141Z,98.45
2022-10-22T16:46:26.226Z,100.00
2022-10-22T16:56:29.099Z,100.00
2022-10-22T17:06:33.247Z,100.00
2022-10-22T17:16:36.124Z,100.00
2022-10-22T17:26:40.363Z,100.00
2022-10-22T17:36:43.254Z,100.00
2022-10-22T17:46:49.762Z,100.00
2022-10-22T17:56:52.719Z,100.00
2022-10-22T18:06:57.165Z,100.00
2022-10-22T18:17:02.506Z,100.00
2022-10-22T18:27:06.859Z,100.00
2022-10-22T18:37:10.015Z,100.00
2022-10-22T18:47:14.172Z,100.00
2022-10-22T18:57:17.105Z,100.00
2022-10-22T19:07:21.375Z,100.00
2022-10-22T19:17:24.121Z,100.00
2022-10-22T19:27:28.485Z,100.00
2022-10-22T19:37:31.387Z,100.00
2022-10-22T19:47:35.546Z,100.00
2022-10-22T19:57:39.060Z,100.00
2022-10-22T20:07:43.935Z,100.00
2022-10-22T20:17:47.068Z,100.00
2022-10-22T20:27:51.350Z,100.00
2022-10-22T20:37:54.207Z,100.00
2022-10-22T20:48:02.732Z,100.00
2022-10-22T20:58:06.182Z,100.00
2022-10-22T21:08:17.285Z,100.00
2022-10-22T21:18:20.113Z,100.00
2022-10-22T21:28:24.307Z,100.00
2022-10-22T21:38:27.140Z,100.00
2022-10-22T21:48:31.448Z,100.00
2022-10-22T21:58:35.004Z,100.00
2022-10-22T22:08:39.473Z,100.00
2022-10-22T22:18:42.725Z,100.00
2022-10-22T22:28:47.285Z,100.00
2022-10-22T22:38:50.069Z,100.00
2022-10-22T22:48:54.278Z,100.00
2022-10-22T22:58:57.667Z,100.00
2022-10-22T23:09:02.025Z,100.00
2022-10-22T23:19:05.533Z,100.00
2022-10-22T23:29:12.361Z,100.00
2022-10-22T23:39:16.171Z,100.00
2022-10-22T23:49:20.410Z,100.00
2022-10-22T23:59:23.252Z,100.00
